createdAt,value
2022-09-28T00:01:19.281Z,52.53
2022-09-28T00:03:45.579Z,51.58
2022-09-28T00:06:12.187Z,53.53
2022-09-28T00:08:38.426Z,56.60
2022-09-28T00:11:04.687Z,59.22
2022-09-28T00:13:33.140Z,58.45
2022-09-28T00:15:59.627Z,49.22
2022-09-28T00:18:26.480Z,54.40
2022-09-28T00:20:52.764Z,50.15
2022-09-28T00:23:19.018Z,54.35
2022-09-28T00:25:45.288Z,53.67
2022-09-28T00:28:11.539Z,55.78
2022-09-28T00:30:37.898Z,54.45
2022-09-28T00:33:04.154Z,61.92
2022-09-28T00:35:30.968Z,70.45
2022-09-28T00:37:57.219Z,70.47
2022-09-28T00:40:23.489Z,67.25
2022-09-28T00:42:49.771Z,69.50
2022-09-28T00:45:16.024Z,63.90
2022-09-28T00:47:42.290Z,59.40
2022-09-28T00:50:08.554Z,56.95
2022-09-28T00:52:34.810Z,60.13
2022-09-28T00:55:01.229Z,60.28
2022-09-28T00:57:27.483Z,61.65
2022-09-28T00:59:53.762Z,61.90
2022-09-28T01:02:20.132Z,64.47
2022-09-28T01:04:46.447Z,61.13
2022-09-28T01:07:12.707Z,61.50
2022-09-28T01:09:39.001Z,59.35
2022-09-28T01:12:05.256Z,63.47
2022-09-28T01:14:31.665Z,59.30
2022-09-28T01:16:58.780Z,57.33
2022-09-28T01:19:24.967Z,62.20
2022-09-28T01:21:51.416Z,64.78
2022-09-28T01:24:17.683Z,63.05
2022-09-28T01:26:44.018Z,58.88
2022-09-28T01:29:10.341Z,54.63
2022-09-28T01:31:36.989Z,57.97
2022-09-28T01:34:03.299Z,57.38
2022-09-28T01:36:29.546Z,58.42
2022-09-28T01:38:55.797Z,48.17
2022-09-28T01:41:22.058Z,70.28
2022-09-28T01:43:48.309Z,82.00
2022-09-28T01:46:14.727Z,49.67
2022-09-28T01:48:41.008Z,48.88
2022-09-28T01:51:07.268Z,52.30
2022-09-28T01:53:33.528Z,54.47
2022-09-28T01:55:59.789Z,49.03
2022-09-28T01:58:26.039Z,43.85
2022-09-28T02:00:52.528Z,47.25
2022-09-28T02:03:18.834Z,49.55
2022-09-28T02:05:45.091Z,47.45
2022-09-28T02:08:11.335Z,44.75
2022-09-28T02:10:37.632Z,51.08
2022-09-28T02:13:04.674Z,50.20
2022-09-28T02:15:30.982Z,52.50
2022-09-28T02:17:57.250Z,54.15
2022-09-28T02:20:23.839Z,54.55
2022-09-28T02:22:50.104Z,61.67
2022-09-28T02:25:16.374Z,55.33
2022-09-28T02:27:42.691Z,54.33
2022-09-28T02:30:08.963Z,47.75
2022-09-28T02:32:35.204Z,56.08
2022-09-28T02:35:01.464Z,56.75
2022-09-28T02:37:27.714Z,52.30
2022-09-28T02:39:54.034Z,45.08
2022-09-28T02:42:20.303Z,48.33
2022-09-28T02:44:46.557Z,45.60
2022-09-28T02:47:12.823Z,44.63
2022-09-28T02:49:39.244Z,46.30
2022-09-28T02:52:05.519Z,45.28
2022-09-28T02:54:31.758Z,48.17
2022-09-28T02:56:58.003Z,50.33
2022-09-28T02:59:24.274Z,49.67
2022-09-28T03:01:50.564Z,58.45
2022-09-28T03:04:16.853Z,61.85
2022-09-28T03:06:43.127Z,58.53
2022-09-28T03:09:09.389Z,63.65
2022-09-28T03:11:35.663Z,60.08
2022-09-28T03:14:01.925Z,58.47
2022-09-28T03:16:29.024Z,53.10
2022-09-28T03:18:55.234Z,54.20
2022-09-28T03:21:21.491Z,50.25
2022-09-28T03:23:47.943Z,48.97
2022-09-28T03:26:14.471Z,49.25
2022-09-28T03:28:40.724Z,47.65
2022-09-28T03:31:07.075Z,49.75
2022-09-28T03:33:33.383Z,44.30
2022-09-28T03:35:59.626Z,47.22
2022-09-28T03:38:25.870Z,42.83
2022-09-28T03:40:52.182Z,40.13
2022-09-28T03:43:18.476Z,40.20
2022-09-28T03:45:44.778Z,43.22
2022-09-28T03:48:11.068Z,56.50
2022-09-28T03:50:37.323Z,54.63
2022-09-28T03:53:03.592Z,49.45
2022-09-28T03:55:29.950Z,51.70
2022-09-28T03:57:56.187Z,48.40
2022-09-28T04:00:22.979Z,53.17
2022-09-28T04:02:49.438Z,51.47
2022-09-28T04:05:15.697Z,63.47
2022-09-28T04:07:42.053Z,64.15
2022-09-28T04:10:08.315Z,60.50
2022-09-28T04:12:34.571Z,54.05
2022-09-28T04:15:00.826Z,43.53
2022-09-28T04:17:27.080Z,43.42
2022-09-28T04:19:53.341Z,65.05
2022-09-28T04:22:19.588Z,65.28
2022-09-28T04:24:46.468Z,53.75
2022-09-28T04:27:31.627Z,53.13
2022-09-28T04:29:57.883Z,48.28
2022-09-28T04:32:24.133Z,44.97
2022-09-28T04:34:51.304Z,45.63
2022-09-28T04:37:17.486Z,51.43
2022-09-28T04:39:47.564Z,58.35
2022-09-28T04:42:14.578Z,54.55
2022-09-28T04:44:40.830Z,40.17
2022-09-28T04:47:07.079Z,44.08
2022-09-28T04:49:35.379Z,62.15
2022-09-28T04:52:01.676Z,59.72
2022-09-28T04:54:27.968Z,52.25
2022-09-28T04:56:55.325Z,59.17
2022-09-28T04:59:21.566Z,60.10
2022-09-28T05:01:48.367Z,57.28
2022-09-28T05:04:14.662Z,57.70
2022-09-28T05:06:40.924Z,55.08
2022-09-28T05:09:07.230Z,54.75
2022-09-28T05:11:33.488Z,57.42
2022-09-28T05:13:59.882Z,56.55
2022-09-28T05:16:27.022Z,55.40
2022-09-28T05:18:53.232Z,58.30
2022-09-28T05:21:20.063Z,62.28
2022-09-28T05:23:46.327Z,60.08
2022-09-28T05:26:12.571Z,57.22
2022-09-28T05:28:38.839Z,59.35
2022-09-28T05:31:05.152Z,58.53
2022-09-28T05:33:31.386Z,54.58
2022-09-28T05:36:01.042Z,59.65
2022-09-28T05:38:28.319Z,60.92
2022-09-28T05:40:54.703Z,51.00
2022-09-28T05:43:21.021Z,44.88
2022-09-28T05:45:50.428Z,41.13
2022-09-28T05:48:20.710Z,45.13
2022-09-28T05:50:46.949Z,51.47
2022-09-28T05:53:13.246Z,50.65
2022-09-28T05:55:39.903Z,46.47
2022-09-28T05:58:06.244Z,52.60
2022-09-28T06:00:32.484Z,48.28
2022-09-28T06:02:58.776Z,47.17
2022-09-28T06:05:25.067Z,45.67
2022-09-28T06:07:51.314Z,52.85
2022-09-28T06:10:17.580Z,52.78
2022-09-28T06:12:44.819Z,56.15
2022-09-28T06:15:11.093Z,56.80
2022-09-28T06:17:37.338Z,60.60
2022-09-28T06:20:03.732Z,57.63
2022-09-28T06:22:29.999Z,57.25
2022-09-28T06:24:56.250Z,54.58
2022-09-28T06:27:22.530Z,53.63
2022-09-28T06:29:48.796Z,59.47
2022-09-28T06:32:15.055Z,58.65
2022-09-28T06:34:41.996Z,53.00
2022-09-28T06:37:08.253Z,60.58
2022-09-28T06:39:34.499Z,57.40
2022-09-28T06:42:03.178Z,51.17
2022-09-28T06:44:29.437Z,49.13
2022-09-28T06:46:58.477Z,46.17
2022-09-28T06:49:27.688Z,54.33
2022-09-28T06:51:53.934Z,67.13
2022-09-28T06:54:20.394Z,54.10
2022-09-28T06:56:46.648Z,51.35
2022-09-28T06:59:12.915Z,48.60
2022-09-28T07:01:39.218Z,52.63
2022-09-28T07:04:05.515Z,63.38
2022-09-28T07:06:31.788Z,73.80
2022-09-28T07:09:11.510Z,69.85
2022-09-28T07:11:46.551Z,45.38
2022-09-28T07:14:24.882Z,44.22
2022-09-28T07:17:12.278Z,48.30
2022-09-28T07:19:39.735Z,44.55
2022-09-28T07:22:05.992Z,50.90
2022-09-28T07:24:32.234Z,49.90
2022-09-28T07:26:58.482Z,54.47
2022-09-28T07:29:25.759Z,51.08
2022-09-28T07:31:52.002Z,51.15
2022-09-28T07:34:18.654Z,54.20
2022-09-28T07:36:45.002Z,51.42
2022-09-28T07:39:12.107Z,50.08
2022-09-28T07:41:39.608Z,51.80
2022-09-28T07:44:06.085Z,56.63
2022-09-28T07:46:32.482Z,53.15
2022-09-28T07:48:58.732Z,43.47
2022-09-28T07:51:28.135Z,43.55
2022-09-28T07:53:54.378Z,45.80
2022-09-28T07:56:20.625Z,45.25
2022-09-28T07:58:46.876Z,51.50
2022-09-28T08:01:16.703Z,53.65
2022-09-28T08:03:46.217Z,48.03
2022-09-28T08:06:12.719Z,61.45
2022-09-28T08:08:43.683Z,70.25
2022-09-28T08:11:10.450Z,68.40
2022-09-28T08:13:37.198Z,61.30
2022-09-28T08:16:03.452Z,50.55
2022-09-28T08:18:29.712Z,47.53
2022-09-28T08:21:14.362Z,49.28
2022-09-28T08:23:40.627Z,44.75
2022-09-28T08:26:06.887Z,49.50
2022-09-28T08:28:33.142Z,63.45
2022-09-28T08:30:59.392Z,54.28
2022-09-28T08:33:25.854Z,50.45
2022-09-28T08:35:52.097Z,49.42
2022-09-28T08:38:18.404Z,46.72
2022-09-28T08:40:44.815Z,46.58
2022-09-28T08:43:11.270Z,47.58
2022-09-28T08:45:37.542Z,46.88
2022-09-28T08:48:22.460Z,50.55
2022-09-28T08:50:48.709Z,66.13
2022-09-28T08:53:14.958Z,52.25
2022-09-28T08:55:41.230Z,57.42
2022-09-28T08:58:07.493Z,69.20
2022-09-28T09:00:34.150Z,52.13
2022-09-28T09:03:00.441Z,47.80
2022-09-28T09:05:26.742Z,50.40
2022-09-28T09:07:52.995Z,54.42
2022-09-28T09:10:19.253Z,69.07
2022-09-28T09:12:45.556Z,44.35
2022-09-28T09:15:11.836Z,44.88
2022-09-28T09:17:38.090Z,47.10
2022-09-28T09:20:04.355Z,60.20
2022-09-28T09:22:30.611Z,63.80
2022-09-28T09:24:56.965Z,54.63
2022-09-28T09:27:23.222Z,46.00
2022-09-28T09:29:50.132Z,48.28
2022-09-28T09:32:16.378Z,48.78
2022-09-28T09:34:42.658Z,64.40
2022-09-28T09:37:08.907Z,63.35
2022-09-28T09:39:35.193Z,63.72
2022-09-28T09:42:01.448Z,51.38
2022-09-28T09:44:27.705Z,57.25
2022-09-28T09:46:54.086Z,57.80
2022-09-28T09:49:20.532Z,57.50
2022-09-28T09:51:46.825Z,61.60
2022-09-28T09:54:13.525Z,65.07
2022-09-28T09:56:39.871Z,64.25
2022-09-28T09:59:06.738Z,60.85
2022-09-28T10:01:33.070Z,50.30
2022-09-28T10:03:59.370Z,51.40
2022-09-28T10:06:26.399Z,52.53
2022-09-28T10:08:53.804Z,55.08
2022-09-28T10:11:20.087Z,53.17
2022-09-28T10:13:46.644Z,50.55
2022-09-28T10:16:12.947Z,54.10
2022-09-28T10:18:39.243Z,61.33
2022-09-28T10:21:05.539Z,62.97
2022-09-28T10:23:33.778Z,57.25
2022-09-28T10:26:00.514Z,55.33
2022-09-28T10:28:26.776Z,55.75
2022-09-28T10:30:53.168Z,58.53
2022-09-28T10:33:19.489Z,67.30
2022-09-28T10:35:47.759Z,68.72
2022-09-28T10:38:14.013Z,59.63
2022-09-28T10:40:40.354Z,59.38
2022-09-28T10:43:06.658Z,54.85
2022-09-28T10:45:32.918Z,59.08
2022-09-28T10:48:00.785Z,64.45
2022-09-28T10:50:27.040Z,60.33
2022-09-28T10:52:53.291Z,81.05
2022-09-28T10:55:19.545Z,81.53
2022-09-28T10:57:45.788Z,69.85
2022-09-28T11:00:12.184Z,85.00
2022-09-28T11:02:38.520Z,69.47
2022-09-28T11:05:04.821Z,68.10
2022-09-28T11:07:31.812Z,76.00
2022-09-28T11:09:58.877Z,66.60
2022-09-28T11:12:26.040Z,69.32
2022-09-28T11:14:52.793Z,70.73
2022-09-28T11:17:19.081Z,72.18
2022-09-28T11:19:45.432Z,73.65
2022-09-28T11:22:13.797Z,60.80
2022-09-28T11:24:40.323Z,62.55
2022-09-28T11:27:06.575Z,70.22
2022-09-28T11:29:33.237Z,54.22
2022-09-28T11:31:59.548Z,47.70
2022-09-28T11:34:41.825Z,53.88
2022-09-28T11:37:15.886Z,57.88
2022-09-28T11:39:42.138Z,64.65
2022-09-28T11:42:10.957Z,75.55
2022-09-28T11:44:39.272Z,86.55
2022-09-28T11:47:05.567Z,70.93
2022-09-28T11:49:31.851Z,68.57
2022-09-28T11:51:58.142Z,74.18
2022-09-28T11:54:26.064Z,68.57
2022-09-28T11:56:52.321Z,75.68
2022-09-28T11:59:18.575Z,95.57
2022-09-28T12:01:44.867Z,92.20
2022-09-28T12:04:11.185Z,91.28
2022-09-28T12:06:37.514Z,92.55
2022-09-28T12:09:03.767Z,93.88
2022-09-28T12:11:30.326Z,103.63
2022-09-28T12:13:57.384Z,74.50
2022-09-28T12:16:45.658Z,84.38
2022-09-28T12:19:09.857Z,126.75
2022-09-28T12:21:36.118Z,94.43
2022-09-28T12:24:02.384Z,212.90
2022-09-28T12:26:29.112Z,217.85
2022-09-28T12:28:56.786Z,59.00
2022-09-28T12:31:23.121Z,60.13
2022-09-28T12:33:49.424Z,56.25
2022-09-28T12:36:16.009Z,73.65
2022-09-28T12:38:42.284Z,91.82
2022-09-28T12:41:10.617Z,102.13
2022-09-28T12:43:36.867Z,65.57
2022-09-28T12:46:18.253Z,58.88
2022-09-28T12:48:45.942Z,57.95
2022-09-28T12:51:16.590Z,63.75
2022-09-28T12:53:42.830Z,61.83
2022-09-28T12:56:09.138Z,58.03
2022-09-28T12:58:36.602Z,52.58
2022-09-28T13:01:02.858Z,54.28
2022-09-28T13:03:31.055Z,51.03
2022-09-28T13:05:57.333Z,54.20
2022-09-28T13:08:23.590Z,47.83
2022-09-28T13:10:50.168Z,79.97
2022-09-28T13:13:16.426Z,48.15
2022-09-28T13:15:42.737Z,76.00
2022-09-28T13:18:09.019Z,64.03
2022-09-28T13:20:35.679Z,53.67
2022-09-28T13:23:02.268Z,52.72
2022-09-28T13:25:28.528Z,57.70
2022-09-28T13:27:54.805Z,67.22
2022-09-28T13:30:21.053Z,69.68
2022-09-28T13:32:47.542Z,67.43
2022-09-28T13:35:13.939Z,63.05
2022-09-28T13:37:40.690Z,67.60
2022-09-28T13:40:07.263Z,66.65
2022-09-28T13:42:33.518Z,57.78
2022-09-28T13:45:00.133Z,46.15
2022-09-28T13:47:26.452Z,44.33
2022-09-28T13:49:52.699Z,61.47
2022-09-28T13:52:18.961Z,94.00
2022-09-28T13:54:45.251Z,75.57
2022-09-28T13:57:11.490Z,57.22
2022-09-28T13:59:37.751Z,53.60
2022-09-28T14:02:06.938Z,55.40
2022-09-28T14:04:33.626Z,74.57
2022-09-28T14:06:59.894Z,100.78
2022-09-28T14:09:26.163Z,86.03
2022-09-28T14:11:52.428Z,66.18
2022-09-28T14:14:18.697Z,53.50
2022-09-28T14:16:44.964Z,51.45
2022-09-28T14:19:11.280Z,50.10
2022-09-28T14:21:37.828Z,49.58
2022-09-28T14:24:04.080Z,58.97
2022-09-28T14:26:30.395Z,66.28
2022-09-28T14:28:56.640Z,73.53
2022-09-28T14:31:22.941Z,58.45
2022-09-28T14:33:49.286Z,53.85
2022-09-28T14:36:35.547Z,52.45
2022-09-28T14:39:20.432Z,58.67
2022-09-28T14:41:46.741Z,86.10
2022-09-28T14:44:13.000Z,44.90
2022-09-28T14:46:40.323Z,60.58
2022-09-28T14:49:06.635Z,52.88
2022-09-28T14:51:34.876Z,65.70
2022-09-28T14:54:01.138Z,60.58
2022-09-28T14:56:32.493Z,55.78
2022-09-28T14:58:59.112Z,52.75
2022-09-28T15:01:25.432Z,56.45
2022-09-28T15:03:52.203Z,51.17
2022-09-28T15:06:19.995Z,48.47
2022-09-28T15:08:46.251Z,53.50
2022-09-28T15:11:12.511Z,46.75
2022-09-28T15:13:40.619Z,47.92
2022-09-28T15:18:33.207Z,46.50
2022-09-28T15:20:59.463Z,48.53
2022-09-28T15:23:25.982Z,47.42
2022-09-28T15:25:52.244Z,49.28
2022-09-28T15:28:18.497Z,54.40
2022-09-28T15:30:45.661Z,68.60
2022-09-28T15:33:30.759Z,99.72
2022-09-28T15:35:57.012Z,62.65
2022-09-28T15:38:23.273Z,89.10
2022-09-28T15:40:49.584Z,53.90
2022-09-28T15:43:15.908Z,56.78
2022-09-28T15:45:44.048Z,42.88
2022-09-28T15:50:38.176Z,45.53
2022-09-28T15:53:04.424Z,45.17
2022-09-28T15:55:30.673Z,43.42
2022-09-28T15:57:56.924Z,49.70
2022-09-28T16:00:23.232Z,48.92
2022-09-28T16:02:49.587Z,42.22
2022-09-28T16:05:15.887Z,47.33
2022-09-28T16:07:42.126Z,46.05
2022-09-28T16:10:08.366Z,47.88
2022-09-28T16:12:34.712Z,58.20
2022-09-28T16:15:01.017Z,90.85
2022-09-28T16:17:31.335Z,92.50
2022-09-28T16:19:57.591Z,87.53
2022-09-28T16:22:28.117Z,69.75
2022-09-28T16:24:55.640Z,71.70
2022-09-28T16:27:21.892Z,68.18
2022-09-28T16:29:48.138Z,65.35
2022-09-28T16:32:14.749Z,84.43
2022-09-28T16:34:41.011Z,93.05
2022-09-28T16:37:07.264Z,93.70
2022-09-28T16:39:33.520Z,83.43
2022-09-28T16:41:59.804Z,80.38
2022-09-28T16:44:26.107Z,73.88
2022-09-28T16:46:53.815Z,78.82
2022-09-28T16:49:20.206Z,81.53
2022-09-28T16:51:46.792Z,78.65
2022-09-28T16:54:31.824Z,75.47
2022-09-28T16:56:58.178Z,55.83
2022-09-28T16:59:24.523Z,53.45
2022-09-28T17:01:50.865Z,53.67
2022-09-28T17:04:17.191Z,43.10
2022-09-28T17:06:43.485Z,46.70
2022-09-28T17:09:09.753Z,61.20
2022-09-28T17:11:36.019Z,62.85
2022-09-28T17:14:03.790Z,48.28
2022-09-28T17:19:17.786Z,60.92
2022-09-28T17:21:44.313Z,64.45
2022-09-28T17:24:10.563Z,60.90
2022-09-28T17:26:36.802Z,55.75
2022-09-28T17:29:03.076Z,61.00
2022-09-28T17:31:29.340Z,76.32
2022-09-28T17:33:55.625Z,59.17
2022-09-28T17:36:21.876Z,60.97
2022-09-28T17:38:48.199Z,57.22
2022-09-28T17:41:19.390Z,50.67
2022-09-28T17:43:46.606Z,53.53
2022-09-28T17:46:12.918Z,50.70
2022-09-28T17:48:39.207Z,55.03
2022-09-28T17:51:05.588Z,56.22
2022-09-28T17:53:31.852Z,50.97
2022-09-28T17:55:58.103Z,49.65
2022-09-28T17:58:24.391Z,50.17
2022-09-28T18:00:50.643Z,55.53
2022-09-28T18:03:16.911Z,54.97
2022-09-28T18:05:43.164Z,58.05
2022-09-28T18:08:09.452Z,59.33
2022-09-28T18:10:35.706Z,58.35
2022-09-28T18:13:01.957Z,56.90
2022-09-28T18:15:28.265Z,54.47
2022-09-28T18:17:57.700Z,54.88
2022-09-28T18:20:23.958Z,49.22
2022-09-28T18:22:50.299Z,44.70
2022-09-28T18:25:16.599Z,54.38
2022-09-28T18:27:43.123Z,60.28
2022-09-28T18:30:09.403Z,63.05
2022-09-28T18:32:36.816Z,75.30
2022-09-28T18:35:03.070Z,74.15
2022-09-28T18:37:29.314Z,58.92
2022-09-28T18:39:55.578Z,53.03
2022-09-28T18:42:21.830Z,66.88
2022-09-28T18:44:48.087Z,81.78
2022-09-28T18:47:15.013Z,98.82
2022-09-28T18:49:45.909Z,86.10
2022-09-28T18:52:12.896Z,64.75
2022-09-28T18:54:40.190Z,47.97
2022-09-28T18:57:06.443Z,43.97
2022-09-28T18:59:32.792Z,51.28
2022-09-28T19:02:01.245Z,62.05
2022-09-28T19:04:27.538Z,70.28
2022-09-28T19:06:54.340Z,59.13
2022-09-28T19:09:20.779Z,55.63
2022-09-28T19:11:47.060Z,54.13
2022-09-28T19:14:15.152Z,51.95
2022-09-28T19:19:07.609Z,49.75
2022-09-28T19:21:33.925Z,45.05
2022-09-28T19:24:00.243Z,85.47
2022-09-28T19:26:27.254Z,71.32
2022-09-28T19:28:53.499Z,60.42
2022-09-28T19:31:19.752Z,68.45
2022-09-28T19:33:46.427Z,70.97
2022-09-28T19:36:13.172Z,65.85
2022-09-28T19:38:39.409Z,67.90
2022-09-28T19:41:05.680Z,76.10
2022-09-28T19:43:31.975Z,74.15
2022-09-28T19:45:58.278Z,72.43
2022-09-28T19:48:26.148Z,71.03
2022-09-28T19:50:53.104Z,66.15
2022-09-28T19:53:19.379Z,57.28
2022-09-28T19:55:45.630Z,52.05
2022-09-28T19:58:12.108Z,56.92
2022-09-28T20:00:38.365Z,58.70
2022-09-28T20:03:04.752Z,62.80
2022-09-28T20:05:31.100Z,62.13
2022-09-28T20:07:57.402Z,59.58
2022-09-28T20:10:23.675Z,61.15
2022-09-28T20:12:49.916Z,62.10
2022-09-28T20:15:16.501Z,59.53
2022-09-28T20:17:42.756Z,62.58
2022-09-28T20:20:09.044Z,68.45
2022-09-28T20:22:35.307Z,70.20
2022-09-28T20:25:02.671Z,70.18
2022-09-28T20:27:28.932Z,78.93
2022-09-28T20:29:55.212Z,84.10
2022-09-28T20:32:21.467Z,80.40
2022-09-28T20:34:47.727Z,86.93
2022-09-28T20:37:17.117Z,87.10
2022-09-28T20:39:45.112Z,98.40
2022-09-28T20:42:11.560Z,93.22
2022-09-28T20:44:37.810Z,93.97
2022-09-28T20:47:04.062Z,92.13
2022-09-28T20:49:31.646Z,82.35
2022-09-28T20:51:57.922Z,79.22
2022-09-28T20:54:24.564Z,77.40
2022-09-28T20:56:50.843Z,67.07
2022-09-28T20:59:17.108Z,51.25
2022-09-28T21:01:43.344Z,47.78
2022-09-28T21:04:09.645Z,52.50
2022-09-28T21:06:35.896Z,67.90
2022-09-28T21:09:02.091Z,63.70
2022-09-28T21:11:28.281Z,63.10
2022-09-28T21:13:54.539Z,60.05
2022-09-28T21:16:20.728Z,69.70
2022-09-28T21:18:46.934Z,48.65
2022-09-28T21:21:13.116Z,41.42
2022-09-28T21:23:39.430Z,42.03
2022-09-28T21:26:05.732Z,44.42
2022-09-28T21:28:32.076Z,45.60
2022-09-28T21:30:58.421Z,43.50
2022-09-28T21:33:24.643Z,43.85
2022-09-28T21:35:50.900Z,46.35
2022-09-28T21:38:17.078Z,43.65
2022-09-28T21:40:43.950Z,44.10
2022-09-28T21:43:10.328Z,47.83
2022-09-28T21:45:38.260Z,50.33
2022-09-28T21:48:04.584Z,49.47
2022-09-28T21:50:30.875Z,50.92
2022-09-28T21:52:57.081Z,50.67
2022-09-28T21:55:23.262Z,50.55
2022-09-28T21:57:50.679Z,47.47
2022-09-28T22:00:23.210Z,50.72
2022-09-28T22:02:49.485Z,44.65
2022-09-28T22:05:15.756Z,50.00
2022-09-28T22:07:42.267Z,61.25
2022-09-28T22:10:08.450Z,51.50
2022-09-28T22:12:34.665Z,53.08
2022-09-28T22:15:00.851Z,44.97
2022-09-28T22:17:27.140Z,42.13
2022-09-28T22:19:53.355Z,41.67
2022-09-28T22:22:19.534Z,45.83
2022-09-28T22:24:45.720Z,42.45
2022-09-28T22:27:11.894Z,42.30
2022-09-28T22:29:38.084Z,41.53
2022-09-28T22:32:04.279Z,39.45
2022-09-28T22:34:31.655Z,40.70
2022-09-28T22:36:57.927Z,39.55
2022-09-28T22:39:24.151Z,40.55
2022-09-28T22:41:50.342Z,41.60
2022-09-28T22:44:16.623Z,38.08
2022-09-28T22:46:42.929Z,43.25
2022-09-28T22:49:09.390Z,54.58
2022-09-28T22:51:35.562Z,55.83
2022-09-28T22:54:01.815Z,54.30
2022-09-28T22:56:27.992Z,53.85
2022-09-28T22:58:54.184Z,52.75
2022-09-28T23:01:20.910Z,62.30
2022-09-28T23:03:47.195Z,72.63
2022-09-28T23:06:13.431Z,66.40
2022-09-28T23:08:39.632Z,57.17
2022-09-28T23:11:05.829Z,53.13
2022-09-28T23:13:32.359Z,47.38
2022-09-28T23:15:58.637Z,48.28
2022-09-28T23:18:24.856Z,44.28
2022-09-28T23:20:51.052Z,44.30
2022-09-28T23:23:17.473Z,49.72
2022-09-28T23:25:43.663Z,44.40
2022-09-28T23:28:09.848Z,41.30
2022-09-28T23:30:36.054Z,43.33
2022-09-28T23:33:02.235Z,40.42
2022-09-28T23:35:28.568Z,45.05
2022-09-28T23:37:54.751Z,45.40
2022-09-28T23:40:20.988Z,44.85
2022-09-28T23:42:47.175Z,48.08
2022-09-28T23:45:13.642Z,49.97
2022-09-28T23:47:39.842Z,50.70
2022-09-28T23:50:06.034Z,61.55
2022-09-28T23:52:32.215Z,57.63
2022-09-28T23:54:58.528Z,54.05
2022-09-28T23:57:25.293Z,52.05
2022-09-28T23:59:51.486Z,52.53
